sensor_id;sensor_type;location;lat;lon;timestamp;P1;durP1;ratioP1;P2;durP2;ratioP2
57341;SDS011;43175;51.002;18.316;2022-12-18T00:00:04;63.80;;;23.30;;
57341;SDS011;43175;51.002;18.316;2022-12-18T00:02:31;67.60;;;21.80;;
57341;SDS011;43175;51.002;18.316;2022-12-18T00:04:57;66.70;;;24.30;;
57341;SDS011;43175;51.002;18.316;2022-12-18T00:07:22;64.90;;;22.90;;
57341;SDS011;43175;51.002;18.316;2022-12-18T00:09:48;58.80;;;21.90;;
57341;SDS011;43175;51.002;18.316;2022-12-18T00:12:13;64.50;;;22.80;;
57341;SDS011;43175;51.002;18.316;2022-12-18T00:14:39;73.90;;;24.80;;
57341;SDS011;43175;51.002;18.316;2022-12-18T00:17:04;63.80;;;23.30;;
57341;SDS011;43175;51.002;18.316;2022-12-18T00:19:33;60.90;;;23.10;;
57341;SDS011;43175;51.002;18.316;2022-12-18T00:21:58;64.60;;;23.20;;
57341;SDS011;43175;51.002;18.316;2022-12-18T00:24:26;60.80;;;21.30;;
57341;SDS011;43175;51.002;18.316;2022-12-18T00:26:51;67.00;;;25.40;;
57341;SDS011;43175;51.002;18.316;2022-12-18T00:29:17;74.10;;;23.20;;
57341;SDS011;43175;51.002;18.316;2022-12-18T00:31:43;67.30;;;24.20;;
57341;SDS011;43175;51.002;18.316;2022-12-18T00:34:11;58.30;;;21.20;;
57341;SDS011;43175;51.002;18.316;2022-12-18T00:36:38;59.90;;;21.80;;
57341;SDS011;43175;51.002;18.316;2022-12-18T00:39:04;55.70;;;20.50;;
57341;SDS011;43175;51.002;18.316;2022-12-18T00:41:30;56.60;;;19.30;;
57341;SDS011;43175;51.002;18.316;2022-12-18T00:44:15;53.50;;;20.20;;
57341;SDS011;43175;51.002;18.316;2022-12-18T00:46:42;55.40;;;19.50;;
57341;SDS011;43175;51.002;18.316;2022-12-18T00:49:09;65.30;;;21.50;;
57341;SDS011;43175;51.002;18.316;2022-12-18T00:51:37;59.50;;;20.80;;
57341;SDS011;43175;51.002;18.316;2022-12-18T00:54:03;57.00;;;19.10;;
57341;SDS011;43175;51.002;18.316;2022-12-18T00:56:30;60.20;;;20.10;;
57341;SDS011;43175;51.002;18.316;2022-12-18T00:58:56;54.00;;;19.60;;
57341;SDS011;43175;51.002;18.316;2022-12-18T01:01:21;57.20;;;20.40;;
57341;SDS011;43175;51.002;18.316;2022-12-18T01:03:47;55.10;;;19.60;;
57341;SDS011;43175;51.002;18.316;2022-12-18T01:06:13;49.40;;;18.20;;
57341;SDS011;43175;51.002;18.316;2022-12-18T01:08:39;54.10;;;19.40;;
57341;SDS011;43175;51.002;18.316;2022-12-18T01:11:12;52.00;;;18.10;;
57341;SDS011;43175;51.002;18.316;2022-12-18T01:13:39;54.90;;;19.10;;
57341;SDS011;43175;51.002;18.316;2022-12-18T01:16:05;50.50;;;19.00;;
57341;SDS011;43175;51.002;18.316;2022-12-18T01:18:31;49.90;;;17.00;;
57341;SDS011;43175;51.002;18.316;2022-12-18T01:20:56;52.70;;;19.20;;
57341;SDS011;43175;51.002;18.316;2022-12-18T01:23:22;50.10;;;18.60;;
57341;SDS011;43175;51.002;18.316;2022-12-18T01:25:47;63.90;;;21.60;;
57341;SDS011;43175;51.002;18.316;2022-12-18T01:28:13;52.60;;;19.40;;
57341;SDS011;43175;51.002;18.316;2022-12-18T01:30:38;47.60;;;17.10;;
57341;SDS011;43175;51.002;18.316;2022-12-18T01:33:04;49.80;;;17.20;;
57341;SDS011;43175;51.002;18.316;2022-12-18T01:35:30;51.80;;;17.80;;
57341;SDS011;43175;51.002;18.316;2022-12-18T01:37:56;50.40;;;17.20;;
57341;SDS011;43175;51.002;18.316;2022-12-18T01:40:21;48.50;;;18.00;;
57341;SDS011;43175;51.002;18.316;2022-12-18T01:42:50;55.60;;;19.40;;
57341;SDS011;43175;51.002;18.316;2022-12-18T01:47:59;48.10;;;17.90;;
57341;SDS011;43175;51.002;18.316;2022-12-18T01:50:36;46.50;;;16.80;;
57341;SDS011;43175;51.002;18.316;2022-12-18T01:55:38;53.50;;;18.90;;
57341;SDS011;43175;51.002;18.316;2022-12-18T01:58:07;55.40;;;19.90;;
57341;SDS011;43175;51.002;18.316;2022-12-18T02:00:33;47.40;;;17.60;;
57341;SDS011;43175;51.002;18.316;2022-12-18T02:02:58;52.30;;;19.00;;
57341;SDS011;43175;51.002;18.316;2022-12-18T02:08:09;47.00;;;16.90;;
57341;SDS011;43175;51.002;18.316;2022-12-18T02:10:53;44.90;;;16.70;;
57341;SDS011;43175;51.002;18.316;2022-12-18T02:19:02;53.40;;;17.70;;
57341;SDS011;43175;51.002;18.316;2022-12-18T02:21:46;46.30;;;17.20;;
57341;SDS011;43175;51.002;18.316;2022-12-18T02:27:25;41.00;;;13.20;;
57341;SDS011;43175;51.002;18.316;2022-12-18T02:29:51;48.80;;;16.20;;
57341;SDS011;43175;51.002;18.316;2022-12-18T02:32:24;51.00;;;17.00;;
57341;SDS011;43175;51.002;18.316;2022-12-18T02:34:52;45.70;;;16.30;;
57341;SDS011;43175;51.002;18.316;2022-12-18T02:37:25;51.20;;;17.20;;
57341;SDS011;43175;51.002;18.316;2022-12-18T02:39:52;45.10;;;15.60;;
57341;SDS011;43175;51.002;18.316;2022-12-18T02:42:20;43.20;;;15.80;;
57341;SDS011;43175;51.002;18.316;2022-12-18T02:44:50;42.90;;;14.30;;
57341;SDS011;43175;51.002;18.316;2022-12-18T02:47:17;43.20;;;15.10;;
57341;SDS011;43175;51.002;18.316;2022-12-18T02:52:35;48.80;;;16.10;;
57341;SDS011;43175;51.002;18.316;2022-12-18T02:57:42;46.50;;;16.10;;
57341;SDS011;43175;51.002;18.316;2022-12-18T03:00:16;42.60;;;15.10;;
57341;SDS011;43175;51.002;18.316;2022-12-18T03:02:55;46.10;;;16.50;;
57341;SDS011;43175;51.002;18.316;2022-12-18T03:05:38;44.20;;;16.10;;
57341;SDS011;43175;51.002;18.316;2022-12-18T03:08:07;46.40;;;15.40;;
57341;SDS011;43175;51.002;18.316;2022-12-18T03:10:43;45.60;;;14.20;;
57341;SDS011;43175;51.002;18.316;2022-12-18T03:13:21;44.30;;;14.40;;
57341;SDS011;43175;51.002;18.316;2022-12-18T03:15:51;45.60;;;15.90;;
57341;SDS011;43175;51.002;18.316;2022-12-18T03:18:19;44.10;;;16.50;;
57341;SDS011;43175;51.002;18.316;2022-12-18T03:20:47;50.00;;;17.90;;
57341;SDS011;43175;51.002;18.316;2022-12-18T03:23:22;41.90;;;15.60;;
57341;SDS011;43175;51.002;18.316;2022-12-18T03:25:52;50.00;;;18.00;;
57341;SDS011;43175;51.002;18.316;2022-12-18T03:28:20;46.10;;;15.00;;
57341;SDS011;43175;51.002;18.316;2022-12-18T03:30:47;46.80;;;15.50;;
57341;SDS011;43175;51.002;18.316;2022-12-18T03:33:16;45.00;;;15.20;;
57341;SDS011;43175;51.002;18.316;2022-12-18T03:35:44;45.80;;;15.90;;
57341;SDS011;43175;51.002;18.316;2022-12-18T03:38:11;45.90;;;14.80;;
57341;SDS011;43175;51.002;18.316;2022-12-18T03:46:33;57.70;;;20.20;;
57341;SDS011;43175;51.002;18.316;2022-12-18T03:49:20;54.90;;;20.60;;
57341;SDS011;43175;51.002;18.316;2022-12-18T03:52:00;53.00;;;18.90;;
57341;SDS011;43175;51.002;18.316;2022-12-18T03:54:28;47.30;;;16.10;;
57341;SDS011;43175;51.002;18.316;2022-12-18T03:56:58;52.50;;;16.90;;
57341;SDS011;43175;51.002;18.316;2022-12-18T03:59:27;43.60;;;16.20;;
57341;SDS011;43175;51.002;18.316;2022-12-18T04:01:54;46.40;;;16.50;;
57341;SDS011;43175;51.002;18.316;2022-12-18T04:04:20;51.50;;;17.30;;
57341;SDS011;43175;51.002;18.316;2022-12-18T04:06:46;46.50;;;17.10;;
57341;SDS011;43175;51.002;18.316;2022-12-18T04:09:13;52.10;;;17.20;;
57341;SDS011;43175;51.002;18.316;2022-12-18T04:11:40;46.50;;;15.30;;
57341;SDS011;43175;51.002;18.316;2022-12-18T04:14:07;47.00;;;14.40;;
57341;SDS011;43175;51.002;18.316;2022-12-18T04:16:32;45.30;;;16.20;;
57341;SDS011;43175;51.002;18.316;2022-12-18T04:18:58;44.70;;;14.90;;
57341;SDS011;43175;51.002;18.316;2022-12-18T04:21:24;42.20;;;14.50;;
57341;SDS011;43175;51.002;18.316;2022-12-18T04:23:49;47.90;;;15.70;;
57341;SDS011;43175;51.002;18.316;2022-12-18T04:26:15;49.20;;;15.70;;
57341;SDS011;43175;51.002;18.316;2022-12-18T04:28:40;38.80;;;14.80;;
57341;SDS011;43175;51.002;18.316;2022-12-18T04:31:05;39.60;;;14.40;;
57341;SDS011;43175;51.002;18.316;2022-12-18T04:33:31;42.00;;;16.00;;
57341;SDS011;43175;51.002;18.316;2022-12-18T04:35:57;41.40;;;13.90;;
57341;SDS011;43175;51.002;18.316;2022-12-18T04:38:23;44.00;;;14.10;;
57341;SDS011;43175;51.002;18.316;2022-12-18T04:40:48;50.50;;;16.40;;
57341;SDS011;43175;51.002;18.316;2022-12-18T04:43:14;47.10;;;16.70;;
57341;SDS011;43175;51.002;18.316;2022-12-18T04:45:40;47.80;;;15.50;;
57341;SDS011;43175;51.002;18.316;2022-12-18T04:48:05;44.80;;;15.80;;
57341;SDS011;43175;51.002;18.316;2022-12-18T04:50:31;44.80;;;16.60;;
57341;SDS011;43175;51.002;18.316;2022-12-18T04:52:56;42.90;;;15.00;;
57341;SDS011;43175;51.002;18.316;2022-12-18T04:55:22;41.80;;;15.10;;
57341;SDS011;43175;51.002;18.316;2022-12-18T04:57:48;38.60;;;13.90;;
57341;SDS011;43175;51.002;18.316;2022-12-18T05:00:13;36.80;;;12.70;;
57341;SDS011;43175;51.002;18.316;2022-12-18T05:02:39;46.50;;;14.50;;
57341;SDS011;43175;51.002;18.316;2022-12-18T05:05:05;45.40;;;15.30;;
57341;SDS011;43175;51.002;18.316;2022-12-18T05:07:31;42.70;;;14.70;;
57341;SDS011;43175;51.002;18.316;2022-12-18T05:09:56;45.60;;;15.00;;
57341;SDS011;43175;51.002;18.316;2022-12-18T05:12:22;34.90;;;13.00;;
57341;SDS011;43175;51.002;18.316;2022-12-18T05:14:47;43.80;;;14.20;;
57341;SDS011;43175;51.002;18.316;2022-12-18T05:17:13;43.30;;;14.80;;
57341;SDS011;43175;51.002;18.316;2022-12-18T05:19:38;40.70;;;13.30;;
57341;SDS011;43175;51.002;18.316;2022-12-18T05:22:07;40.20;;;14.70;;
57341;SDS011;43175;51.002;18.316;2022-12-18T05:24:33;42.90;;;15.10;;
57341;SDS011;43175;51.002;18.316;2022-12-18T05:26:59;44.70;;;15.00;;
57341;SDS011;43175;51.002;18.316;2022-12-18T05:29:24;42.60;;;15.30;;
57341;SDS011;43175;51.002;18.316;2022-12-18T05:31:49;43.70;;;15.10;;
57341;SDS011;43175;51.002;18.316;2022-12-18T05:34:15;43.30;;;14.40;;
57341;SDS011;43175;51.002;18.316;2022-12-18T05:36:42;44.90;;;14.70;;
57341;SDS011;43175;51.002;18.316;2022-12-18T05:39:07;43.80;;;15.40;;
57341;SDS011;43175;51.002;18.316;2022-12-18T05:41:34;40.40;;;15.90;;
57341;SDS011;43175;51.002;18.316;2022-12-18T05:43:59;48.90;;;16.60;;
57341;SDS011;43175;51.002;18.316;2022-12-18T05:46:25;53.60;;;17.10;;
57341;SDS011;43175;51.002;18.316;2022-12-18T05:48:51;46.40;;;15.40;;
57341;SDS011;43175;51.002;18.316;2022-12-18T05:51:17;43.70;;;14.50;;
57341;SDS011;43175;51.002;18.316;2022-12-18T05:53:44;45.40;;;15.30;;
57341;SDS011;43175;51.002;18.316;2022-12-18T05:56:12;42.80;;;15.00;;
57341;SDS011;43175;51.002;18.316;2022-12-18T05:58:39;42.30;;;14.40;;
57341;SDS011;43175;51.002;18.316;2022-12-18T06:01:15;44.80;;;13.50;;
57341;SDS011;43175;51.002;18.316;2022-12-18T06:03:43;41.10;;;14.50;;
57341;SDS011;43175;51.002;18.316;2022-12-18T06:06:27;48.20;;;15.70;;
57341;SDS011;43175;51.002;18.316;2022-12-18T06:08:54;43.50;;;14.20;;
57341;SDS011;43175;51.002;18.316;2022-12-18T06:11:24;40.60;;;13.70;;
57341;SDS011;43175;51.002;18.316;2022-12-18T06:13:51;37.40;;;14.40;;
57341;SDS011;43175;51.002;18.316;2022-12-18T06:16:18;43.50;;;16.00;;
57341;SDS011;43175;51.002;18.316;2022-12-18T06:18:43;40.50;;;14.30;;
57341;SDS011;43175;51.002;18.316;2022-12-18T06:21:09;37.00;;;14.50;;
57341;SDS011;43175;51.002;18.316;2022-12-18T06:23:35;40.50;;;14.80;;
57341;SDS011;43175;51.002;18.316;2022-12-18T06:26:04;38.30;;;13.30;;
57341;SDS011;43175;51.002;18.316;2022-12-18T06:28:31;37.20;;;13.00;;
57341;SDS011;43175;51.002;18.316;2022-12-18T06:30:57;38.20;;;13.20;;
57341;SDS011;43175;51.002;18.316;2022-12-18T06:33:25;41.50;;;13.90;;
57341;SDS011;43175;51.002;18.316;2022-12-18T06:36:06;42.50;;;13.60;;
57341;SDS011;43175;51.002;18.316;2022-12-18T06:38:34;43.20;;;13.30;;
57341;SDS011;43175;51.002;18.316;2022-12-18T06:41:00;43.20;;;13.70;;
57341;SDS011;43175;51.002;18.316;2022-12-18T06:43:31;37.90;;;13.10;;
57341;SDS011;43175;51.002;18.316;2022-12-18T06:46:00;45.80;;;13.60;;
57341;SDS011;43175;51.002;18.316;2022-12-18T06:48:26;42.80;;;14.00;;
57341;SDS011;43175;51.002;18.316;2022-12-18T06:50:53;36.50;;;12.10;;
57341;SDS011;43175;51.002;18.316;2022-12-18T06:53:18;45.60;;;17.20;;
57341;SDS011;43175;51.002;18.316;2022-12-18T06:55:44;44.00;;;15.80;;
57341;SDS011;43175;51.002;18.316;2022-12-18T06:58:09;35.90;;;14.40;;
57341;SDS011;43175;51.002;18.316;2022-12-18T07:00:35;39.40;;;14.30;;
57341;SDS011;43175;51.002;18.316;2022-12-18T07:03:01;40.60;;;15.30;;
57341;SDS011;43175;51.002;18.316;2022-12-18T07:05:26;44.90;;;16.40;;
57341;SDS011;43175;51.002;18.316;2022-12-18T07:07:52;51.60;;;19.20;;
57341;SDS011;43175;51.002;18.316;2022-12-18T07:10:17;44.20;;;16.10;;
57341;SDS011;43175;51.002;18.316;2022-12-18T07:12:43;48.20;;;15.90;;
57341;SDS011;43175;51.002;18.316;2022-12-18T07:15:08;41.10;;;14.30;;
57341;SDS011;43175;51.002;18.316;2022-12-18T07:17:34;47.80;;;16.00;;
57341;SDS011;43175;51.002;18.316;2022-12-18T07:20:00;48.60;;;15.40;;
57341;SDS011;43175;51.002;18.316;2022-12-18T07:22:26;46.10;;;14.90;;
57341;SDS011;43175;51.002;18.316;2022-12-18T07:24:51;45.10;;;14.60;;
57341;SDS011;43175;51.002;18.316;2022-12-18T07:27:17;43.20;;;14.40;;
57341;SDS011;43175;51.002;18.316;2022-12-18T07:29:42;43.70;;;15.20;;
57341;SDS011;43175;51.002;18.316;2022-12-18T07:32:07;45.20;;;15.30;;
57341;SDS011;43175;51.002;18.316;2022-12-18T07:34:33;49.40;;;16.60;;
57341;SDS011;43175;51.002;18.316;2022-12-18T07:36:59;62.10;;;21.00;;
57341;SDS011;43175;51.002;18.316;2022-12-18T07:39:25;72.60;;;30.60;;
57341;SDS011;43175;51.002;18.316;2022-12-18T07:41:50;71.60;;;28.70;;
57341;SDS011;43175;51.002;18.316;2022-12-18T07:44:34;62.60;;;25.10;;
57341;SDS011;43175;51.002;18.316;2022-12-18T07:47:03;53.80;;;19.20;;
57341;SDS011;43175;51.002;18.316;2022-12-18T07:49:28;45.10;;;16.70;;
57341;SDS011;43175;51.002;18.316;2022-12-18T07:51:54;66.30;;;21.80;;
57341;SDS011;43175;51.002;18.316;2022-12-18T07:54:21;65.60;;;25.80;;
57341;SDS011;43175;51.002;18.316;2022-12-18T07:56:48;107.60;;;41.10;;
57341;SDS011;43175;51.002;18.316;2022-12-18T07:59:13;84.40;;;32.40;;
57341;SDS011;43175;51.002;18.316;2022-12-18T08:01:38;74.60;;;27.40;;
57341;SDS011;43175;51.002;18.316;2022-12-18T08:04:04;71.20;;;26.60;;
57341;SDS011;43175;51.002;18.316;2022-12-18T08:06:30;60.70;;;20.60;;
57341;SDS011;43175;51.002;18.316;2022-12-18T08:08:56;52.60;;;16.90;;
57341;SDS011;43175;51.002;18.316;2022-12-18T08:11:23;49.70;;;17.60;;
57341;SDS011;43175;51.002;18.316;2022-12-18T08:13:49;51.00;;;18.40;;
57341;SDS011;43175;51.002;18.316;2022-12-18T08:16:15;68.80;;;26.10;;
57341;SDS011;43175;51.002;18.316;2022-12-18T08:18:41;73.40;;;27.40;;
57341;SDS011;43175;51.002;18.316;2022-12-18T08:21:07;76.30;;;27.50;;
57341;SDS011;43175;51.002;18.316;2022-12-18T08:23:53;55.90;;;22.30;;
57341;SDS011;43175;51.002;18.316;2022-12-18T08:26:20;57.10;;;20.40;;
57341;SDS011;43175;51.002;18.316;2022-12-18T08:28:46;56.30;;;19.10;;
57341;SDS011;43175;51.002;18.316;2022-12-18T08:31:11;47.80;;;17.40;;
57341;SDS011;43175;51.002;18.316;2022-12-18T08:33:37;51.90;;;17.60;;
57341;SDS011;43175;51.002;18.316;2022-12-18T08:36:04;68.80;;;28.60;;
57341;SDS011;43175;51.002;18.316;2022-12-18T08:38:31;64.70;;;26.00;;
57341;SDS011;43175;51.002;18.316;2022-12-18T08:43:30;54.10;;;20.50;;
57341;SDS011;43175;51.002;18.316;2022-12-18T08:49:03;51.80;;;17.70;;
57341;SDS011;43175;51.002;18.316;2022-12-18T08:51:29;49.30;;;17.00;;
57341;SDS011;43175;51.002;18.316;2022-12-18T08:53:55;50.00;;;17.10;;
57341;SDS011;43175;51.002;18.316;2022-12-18T08:56:20;45.60;;;15.70;;
57341;SDS011;43175;51.002;18.316;2022-12-18T08:58:46;56.00;;;19.00;;
57341;SDS011;43175;51.002;18.316;2022-12-18T09:01:11;49.00;;;17.10;;
57341;SDS011;43175;51.002;18.316;2022-12-18T09:03:39;51.70;;;18.10;;
57341;SDS011;43175;51.002;18.316;2022-12-18T09:06:04;54.50;;;18.70;;
57341;SDS011;43175;51.002;18.316;2022-12-18T09:08:31;57.70;;;21.00;;
57341;SDS011;43175;51.002;18.316;2022-12-18T09:10:56;70.10;;;26.70;;
57341;SDS011;43175;51.002;18.316;2022-12-18T09:13:22;65.10;;;25.30;;
57341;SDS011;43175;51.002;18.316;2022-12-18T09:15:48;66.10;;;26.40;;
57341;SDS011;43175;51.002;18.316;2022-12-18T09:18:17;67.00;;;23.90;;
57341;SDS011;43175;51.002;18.316;2022-12-18T09:20:44;66.30;;;25.30;;
57341;SDS011;43175;51.002;18.316;2022-12-18T09:23:10;74.50;;;29.10;;
57341;SDS011;43175;51.002;18.316;2022-12-18T09:25:36;69.00;;;26.70;;
57341;SDS011;43175;51.002;18.316;2022-12-18T09:28:04;68.50;;;28.70;;
57341;SDS011;43175;51.002;18.316;2022-12-18T09:30:31;61.10;;;24.70;;
57341;SDS011;43175;51.002;18.316;2022-12-18T09:32:58;60.40;;;25.50;;
57341;SDS011;43175;51.002;18.316;2022-12-18T09:35:25;73.70;;;30.20;;
57341;SDS011;43175;51.002;18.316;2022-12-18T09:37:50;62.30;;;27.30;;
57341;SDS011;43175;51.002;18.316;2022-12-18T09:40:16;65.30;;;28.10;;
57341;SDS011;43175;51.002;18.316;2022-12-18T09:43:03;60.20;;;25.90;;
57341;SDS011;43175;51.002;18.316;2022-12-18T09:45:31;55.10;;;21.60;;
57341;SDS011;43175;51.002;18.316;2022-12-18T09:48:04;54.00;;;23.80;;
57341;SDS011;43175;51.002;18.316;2022-12-18T09:50:33;54.70;;;20.90;;
57341;SDS011;43175;51.002;18.316;2022-12-18T09:53:05;53.40;;;19.30;;
57341;SDS011;43175;51.002;18.316;2022-12-18T09:55:36;53.60;;;20.70;;
57341;SDS011;43175;51.002;18.316;2022-12-18T10:00:34;108.90;;;52.60;;
57341;SDS011;43175;51.002;18.316;2022-12-18T10:03:08;92.60;;;39.40;;
57341;SDS011;43175;51.002;18.316;2022-12-18T10:13:27;53.00;;;21.00;;
57341;SDS011;43175;51.002;18.316;2022-12-18T10:16:10;54.10;;;19.00;;
57341;SDS011;43175;51.002;18.316;2022-12-18T10:27:09;50.60;;;19.00;;
57341;SDS011;43175;51.002;18.316;2022-12-18T10:29:39;44.80;;;16.00;;
57341;SDS011;43175;51.002;18.316;2022-12-18T10:32:04;51.50;;;17.00;;
57341;SDS011;43175;51.002;18.316;2022-12-18T10:34:30;47.20;;;18.10;;
57341;SDS011;43175;51.002;18.316;2022-12-18T10:36:55;45.10;;;18.70;;
57341;SDS011;43175;51.002;18.316;2022-12-18T10:39:22;44.50;;;16.80;;
57341;SDS011;43175;51.002;18.316;2022-12-18T10:41:50;47.90;;;18.40;;
57341;SDS011;43175;51.002;18.316;2022-12-18T10:44:17;59.20;;;22.50;;
57341;SDS011;43175;51.002;18.316;2022-12-18T10:46:44;85.50;;;31.20;;
57341;SDS011;43175;51.002;18.316;2022-12-18T10:49:24;100.50;;;35.10;;
57341;SDS011;43175;51.002;18.316;2022-12-18T10:57:34;63.10;;;24.80;;
57341;SDS011;43175;51.002;18.316;2022-12-18T11:00:22;51.00;;;19.70;;
57341;SDS011;43175;51.002;18.316;2022-12-18T11:02:49;51.90;;;21.00;;
57341;SDS011;43175;51.002;18.316;2022-12-18T11:05:49;50.10;;;19.40;;
57341;SDS011;43175;51.002;18.316;2022-12-18T11:08:11;58.40;;;23.80;;
57341;SDS011;43175;51.002;18.316;2022-12-18T11:10:46;47.40;;;19.50;;
57341;SDS011;43175;51.002;18.316;2022-12-18T11:13:22;50.60;;;18.40;;
57341;SDS011;43175;51.002;18.316;2022-12-18T11:15:49;48.40;;;18.10;;
57341;SDS011;43175;51.002;18.316;2022-12-18T11:18:19;45.60;;;18.80;;
57341;SDS011;43175;51.002;18.316;2022-12-18T11:20:51;45.60;;;18.00;;
57341;SDS011;43175;51.002;18.316;2022-12-18T11:23:19;48.70;;;18.20;;
57341;SDS011;43175;51.002;18.316;2022-12-18T11:25:52;49.90;;;18.60;;
57341;SDS011;43175;51.002;18.316;2022-12-18T11:31:24;49.80;;;19.90;;
57341;SDS011;43175;51.002;18.316;2022-12-18T11:34:13;48.00;;;19.40;;
57341;SDS011;43175;51.002;18.316;2022-12-18T11:36:48;52.70;;;19.80;;
57341;SDS011;43175;51.002;18.316;2022-12-18T11:39:20;54.50;;;20.80;;
57341;SDS011;43175;51.002;18.316;2022-12-18T11:53:01;49.10;;;18.80;;
57341;SDS011;43175;51.002;18.316;2022-12-18T11:58:35;52.10;;;19.20;;
57341;SDS011;43175;51.002;18.316;2022-12-18T12:01:13;52.40;;;20.10;;
57341;SDS011;43175;51.002;18.316;2022-12-18T12:09:14;52.60;;;19.30;;
57341;SDS011;43175;51.002;18.316;2022-12-18T12:15:04;51.50;;;19.90;;
57341;SDS011;43175;51.002;18.316;2022-12-18T12:17:47;59.20;;;20.90;;
57341;SDS011;43175;51.002;18.316;2022-12-18T12:20:21;62.20;;;20.90;;
57341;SDS011;43175;51.002;18.316;2022-12-18T12:23:02;66.70;;;22.70;;
57341;SDS011;43175;51.002;18.316;2022-12-18T12:25:49;68.70;;;23.10;;
57341;SDS011;43175;51.002;18.316;2022-12-18T12:28:20;65.30;;;21.10;;
57341;SDS011;43175;51.002;18.316;2022-12-18T12:31:46;66.70;;;22.50;;
57341;SDS011;43175;51.002;18.316;2022-12-18T12:36:55;71.30;;;25.50;;
57341;SDS011;43175;51.002;18.316;2022-12-18T12:39:34;64.50;;;23.50;;
57341;SDS011;43175;51.002;18.316;2022-12-18T12:42:03;75.20;;;24.50;;
57341;SDS011;43175;51.002;18.316;2022-12-18T12:44:54;75.60;;;25.10;;
57341;SDS011;43175;51.002;18.316;2022-12-18T12:47:31;71.00;;;24.60;;
57341;SDS011;43175;51.002;18.316;2022-12-18T12:49:59;67.60;;;23.80;;
57341;SDS011;43175;51.002;18.316;2022-12-18T12:52:37;72.80;;;24.10;;
57341;SDS011;43175;51.002;18.316;2022-12-18T12:55:16;74.10;;;23.40;;
57341;SDS011;43175;51.002;18.316;2022-12-18T12:57:45;79.00;;;28.30;;
57341;SDS011;43175;51.002;18.316;2022-12-18T13:00:17;87.10;;;32.70;;
57341;SDS011;43175;51.002;18.316;2022-12-18T13:05:26;90.00;;;31.60;;
57341;SDS011;43175;51.002;18.316;2022-12-18T13:10:33;260.20;;;74.80;;
57341;SDS011;43175;51.002;18.316;2022-12-18T13:13:10;370.30;;;114.00;;
57341;SDS011;43175;51.002;18.316;2022-12-18T13:15:38;327.70;;;93.90;;
57341;SDS011;43175;51.002;18.316;2022-12-18T13:25:47;153.70;;;54.60;;
57341;SDS011;43175;51.002;18.316;2022-12-18T13:28:14;109.60;;;42.00;;
57341;SDS011;43175;51.002;18.316;2022-12-18T13:30:48;124.10;;;46.20;;
57341;SDS011;43175;51.002;18.316;2022-12-18T13:38:21;99.30;;;35.00;;
57341;SDS011;43175;51.002;18.316;2022-12-18T13:40:56;85.20;;;32.10;;
57341;SDS011;43175;51.002;18.316;2022-12-18T13:43:31;84.00;;;32.20;;
57341;SDS011;43175;51.002;18.316;2022-12-18T13:46:05;83.80;;;31.50;;
57341;SDS011;43175;51.002;18.316;2022-12-18T13:48:49;67.10;;;26.00;;
57341;SDS011;43175;51.002;18.316;2022-12-18T13:51:35;60.60;;;23.00;;
57341;SDS011;43175;51.002;18.316;2022-12-18T13:56:46;55.60;;;20.00;;
57341;SDS011;43175;51.002;18.316;2022-12-18T14:01:52;53.90;;;19.20;;
57341;SDS011;43175;51.002;18.316;2022-12-18T14:04:38;62.10;;;21.50;;
57341;SDS011;43175;51.002;18.316;2022-12-18T14:07:07;59.30;;;22.30;;
57341;SDS011;43175;51.002;18.316;2022-12-18T14:09:39;59.10;;;22.20;;
57341;SDS011;43175;51.002;18.316;2022-12-18T14:12:06;58.10;;;20.10;;
57341;SDS011;43175;51.002;18.316;2022-12-18T14:14:51;68.60;;;24.40;;
57341;SDS011;43175;51.002;18.316;2022-12-18T14:17:17;70.10;;;24.70;;
57341;SDS011;43175;51.002;18.316;2022-12-18T14:19:43;59.20;;;23.60;;
57341;SDS011;43175;51.002;18.316;2022-12-18T14:22:14;67.00;;;24.20;;
57341;SDS011;43175;51.002;18.316;2022-12-18T14:24:47;73.70;;;25.10;;
57341;SDS011;43175;51.002;18.316;2022-12-18T14:27:25;72.40;;;25.40;;
57341;SDS011;43175;51.002;18.316;2022-12-18T14:29:51;78.10;;;26.70;;
57341;SDS011;43175;51.002;18.316;2022-12-18T14:32:18;78.20;;;27.10;;
57341;SDS011;43175;51.002;18.316;2022-12-18T14:37:23;72.50;;;25.20;;
57341;SDS011;43175;51.002;18.316;2022-12-18T14:40:11;68.40;;;25.00;;
57341;SDS011;43175;51.002;18.316;2022-12-18T14:42:38;61.70;;;21.60;;
57341;SDS011;43175;51.002;18.316;2022-12-18T14:47:59;77.40;;;24.00;;
57341;SDS011;43175;51.002;18.316;2022-12-18T14:50:28;66.20;;;21.50;;
57341;SDS011;43175;51.002;18.316;2022-12-18T14:52:53;61.30;;;22.00;;
57341;SDS011;43175;51.002;18.316;2022-12-18T14:55:19;64.80;;;21.30;;
57341;SDS011;43175;51.002;18.316;2022-12-18T14:57:50;60.50;;;20.70;;
57341;SDS011;43175;51.002;18.316;2022-12-18T15:00:18;66.00;;;19.80;;
57341;SDS011;43175;51.002;18.316;2022-12-18T15:02:50;56.00;;;20.00;;
57341;SDS011;43175;51.002;18.316;2022-12-18T15:05:24;66.20;;;20.20;;
57341;SDS011;43175;51.002;18.316;2022-12-18T15:07:58;72.80;;;22.40;;
57341;SDS011;43175;51.002;18.316;2022-12-18T15:10:26;70.90;;;22.90;;
57341;SDS011;43175;51.002;18.316;2022-12-18T15:18:12;90.10;;;31.90;;
57341;SDS011;43175;51.002;18.316;2022-12-18T15:20:49;88.20;;;28.60;;
57341;SDS011;43175;51.002;18.316;2022-12-18T15:26:21;71.20;;;20.50;;
57341;SDS011;43175;51.002;18.316;2022-12-18T15:28:51;72.60;;;21.80;;
57341;SDS011;43175;51.002;18.316;2022-12-18T15:36:19;57.60;;;19.40;;
57341;SDS011;43175;51.002;18.316;2022-12-18T15:38:46;53.60;;;17.90;;
57341;SDS011;43175;51.002;18.316;2022-12-18T15:41:16;58.80;;;18.70;;
57341;SDS011;43175;51.002;18.316;2022-12-18T15:43:45;69.10;;;24.50;;
57341;SDS011;43175;51.002;18.316;2022-12-18T15:46:16;89.80;;;34.30;;
57341;SDS011;43175;51.002;18.316;2022-12-18T15:48:47;87.20;;;32.20;;
57341;SDS011;43175;51.002;18.316;2022-12-18T15:51:16;70.20;;;24.10;;
57341;SDS011;43175;51.002;18.316;2022-12-18T15:53:43;61.80;;;23.70;;
57341;SDS011;43175;51.002;18.316;2022-12-18T15:56:10;53.40;;;18.40;;
57341;SDS011;43175;51.002;18.316;2022-12-18T15:58:55;69.20;;;20.40;;
57341;SDS011;43175;51.002;18.316;2022-12-18T16:01:29;85.10;;;26.20;;
57341;SDS011;43175;51.002;18.316;2022-12-18T16:03:55;72.10;;;23.40;;
57341;SDS011;43175;51.002;18.316;2022-12-18T16:06:21;92.70;;;26.70;;
57341;SDS011;43175;51.002;18.316;2022-12-18T16:08:47;88.30;;;27.80;;
57341;SDS011;43175;51.002;18.316;2022-12-18T16:11:26;72.50;;;25.10;;
57341;SDS011;43175;51.002;18.316;2022-12-18T16:14:11;72.00;;;23.30;;
57341;SDS011;43175;51.002;18.316;2022-12-18T16:16:44;81.60;;;27.50;;
57341;SDS011;43175;51.002;18.316;2022-12-18T16:19:10;113.70;;;34.00;;
57341;SDS011;43175;51.002;18.316;2022-12-18T16:21:36;122.60;;;37.00;;
57341;SDS011;43175;51.002;18.316;2022-12-18T16:24:01;110.40;;;32.60;;
57341;SDS011;43175;51.002;18.316;2022-12-18T16:26:27;91.80;;;30.60;;
57341;SDS011;43175;51.002;18.316;2022-12-18T16:28:52;95.60;;;31.30;;